sensor_id;sensor_type;location;lat;lon;timestamp;temperature;humidity
26037;DHT22;13810;48.376;10.944;2023-08-08T00:00:08;11.20;99.90
26037;DHT22;13810;48.376;10.944;2023-08-08T00:00:39;11.20;99.90
26037;DHT22;13810;48.376;10.944;2023-08-08T00:01:10;11.20;99.90
26037;DHT22;13810;48.376;10.944;2023-08-08T00:01:40;11.20;99.90
26037;DHT22;13810;48.376;10.944;2023-08-08T00:02:13;11.20;99.90
26037;DHT22;13810;48.376;10.944;2023-08-08T00:02:43;11.20;99.90
26037;DHT22;13810;48.376;10.944;2023-08-08T00:03:14;11.20;99.90
26037;DHT22;13810;48.376;10.944;2023-08-08T00:03:45;11.10;99.90
26037;DHT22;13810;48.376;10.944;2023-08-08T00:04:15;11.10;99.90
26037;DHT22;13810;48.376;10.944;2023-08-08T00:04:46;11.10;99.90
26037;DHT22;13810;48.376;10.944;2023-08-08T00:05:17;11.10;99.90
26037;DHT22;13810;48.376;10.944;2023-08-08T00:05:47;11.10;99.90
26037;DHT22;13810;48.376;10.944;2023-08-08T00:06:18;11.10;99.90
26037;DHT22;13810;48.376;10.944;2023-08-08T00:06:48;11.10;99.90
26037;DHT22;13810;48.376;10.944;2023-08-08T00:07:19;11.10;99.90
26037;DHT22;13810;48.376;10.944;2023-08-08T00:07:50;11.10;99.90
26037;DHT22;13810;48.376;10.944;2023-08-08T00:08:20;11.10;99.90
26037;DHT22;13810;48.376;10.944;2023-08-08T00:08:51;11.10;99.90
26037;DHT22;13810;48.376;10.944;2023-08-08T00:09:22;11.00;99.90
26037;DHT22;13810;48.376;10.944;2023-08-08T00:09:52;11.00;99.90
26037;DHT22;13810;48.376;10.944;2023-08-08T00:10:23;11.00;99.90
26037;DHT22;13810;48.376;10.944;2023-08-08T00:10:53;11.10;99.90
26037;DHT22;13810;48.376;10.944;2023-08-08T00:11:24;11.00;99.90
26037;DHT22;13810;48.376;10.944;2023-08-08T00:11:54;11.00;99.90
26037;DHT22;13810;48.376;10.944;2023-08-08T00:12:27;11.00;99.90
26037;DHT22;13810;48.376;10.944;2023-08-08T00:12:58;11.00;99.90
26037;DHT22;13810;48.376;10.944;2023-08-08T00:13:28;11.00;99.90
26037;DHT22;13810;48.376;10.944;2023-08-08T00:13:59;11.00;99.90
26037;DHT22;13810;48.376;10.944;2023-08-08T00:14:30;11.00;99.90
26037;DHT22;13810;48.376;10.944;2023-08-08T00:15:00;11.00;99.90
26037;DHT22;13810;48.376;10.944;2023-08-08T00:15:31;11.00;99.90
26037;DHT22;13810;48.376;10.944;2023-08-08T00:16:01;11.00;99.90
26037;DHT22;13810;48.376;10.944;2023-08-08T00:16:33;11.00;99.90
26037;DHT22;13810;48.376;10.944;2023-08-08T00:17:03;11.00;99.90
26037;DHT22;13810;48.376;10.944;2023-08-08T00:17:34;10.90;99.90
26037;DHT22;13810;48.376;10.944;2023-08-08T00:18:05;10.90;99.90
26037;DHT22;13810;48.376;10.944;2023-08-08T00:18:35;10.90;99.90
26037;DHT22;13810;48.376;10.944;2023-08-08T00:19:06;10.90;99.90
26037;DHT22;13810;48.376;10.944;2023-08-08T00:19:37;10.90;99.90
26037;DHT22;13810;48.376;10.944;2023-08-08T00:20:08;10.90;99.90
26037;DHT22;13810;48.376;10.944;2023-08-08T00:20:39;10.90;99.90
26037;DHT22;13810;48.376;10.944;2023-08-08T00:21:09;10.90;99.90
26037;DHT22;13810;48.376;10.944;2023-08-08T00:21:40;10.90;99.90
26037;DHT22;13810;48.376;10.944;2023-08-08T00:22:11;10.90;99.90
26037;DHT22;13810;48.376;10.944;2023-08-08T00:22:41;10.90;99.90
26037;DHT22;13810;48.376;10.944;2023-08-08T00:23:12;10.90;99.90
26037;DHT22;13810;48.376;10.944;2023-08-08T00:23:42;10.90;99.90
26037;DHT22;13810;48.376;10.944;2023-08-08T00:24:13;10.80;99.90
26037;DHT22;13810;48.376;10.944;2023-08-08T00:24:44;10.80;99.90
26037;DHT22;13810;48.376;10.944;2023-08-08T00:25:14;10.80;99.90
26037;DHT22;13810;48.376;10.944;2023-08-08T00:25:45;10.80;99.90
26037;DHT22;13810;48.376;10.944;2023-08-08T00:26:20;10.80;99.90
26037;DHT22;13810;48.376;10.944;2023-08-08T00:26:50;10.80;99.90
26037;DHT22;13810;48.376;10.944;2023-08-08T00:27:21;10.80;99.90
26037;DHT22;13810;48.376;10.944;2023-08-08T00:27:52;10.80;99.90
26037;DHT22;13810;48.376;10.944;2023-08-08T00:28:22;10.80;99.90
26037;DHT22;13810;48.376;10.944;2023-08-08T00:28:53;10.80;99.90
26037;DHT22;13810;48.376;10.944;2023-08-08T00:29:23;10.70;99.90
26037;DHT22;13810;48.376;10.944;2023-08-08T00:29:54;10.80;99.90
26037;DHT22;13810;48.376;10.944;2023-08-08T00:30:25;10.80;99.90
26037;DHT22;13810;48.376;10.944;2023-08-08T00:30:55;10.80;99.90
26037;DHT22;13810;48.376;10.944;2023-08-08T00:31:26;10.80;99.90
26037;DHT22;13810;48.376;10.944;2023-08-08T00:31:57;10.70;99.90
26037;DHT22;13810;48.376;10.944;2023-08-08T00:32:27;10.70;99.90
26037;DHT22;13810;48.376;10.944;2023-08-08T00:32:58;10.80;99.90
26037;DHT22;13810;48.376;10.944;2023-08-08T00:33:28;10.70;99.90
26037;DHT22;13810;48.376;10.944;2023-08-08T00:33:59;10.80;99.90
26037;DHT22;13810;48.376;10.944;2023-08-08T00:34:30;10.70;99.90
26037;DHT22;13810;48.376;10.944;2023-08-08T00:35:00;10.70;99.90
26037;DHT22;13810;48.376;10.944;2023-08-08T00:35:31;10.70;99.90
26037;DHT22;13810;48.376;10.944;2023-08-08T00:36:01;10.70;99.90
26037;DHT22;13810;48.376;10.944;2023-08-08T00:36:32;10.70;99.90
26037;DHT22;13810;48.376;10.944;2023-08-08T00:37:03;10.70;99.90
26037;DHT22;13810;48.376;10.944;2023-08-08T00:37:34;10.70;99.90
26037;DHT22;13810;48.376;10.944;2023-08-08T00:38:04;10.70;99.90
26037;DHT22;13810;48.376;10.944;2023-08-08T00:38:35;10.70;99.90
26037;DHT22;13810;48.376;10.944;2023-08-08T00:39:05;10.70;99.90
26037;DHT22;13810;48.376;10.944;2023-08-08T00:39:36;10.70;99.90
26037;DHT22;13810;48.376;10.944;2023-08-08T00:40:07;10.70;99.90
26037;DHT22;13810;48.376;10.944;2023-08-08T00:40:38;10.70;99.90
26037;DHT22;13810;48.376;10.944;2023-08-08T00:41:09;10.70;99.90
26037;DHT22;13810;48.376;10.944;2023-08-08T00:41:39;10.60;99.90
26037;DHT22;13810;48.376;10.944;2023-08-08T00:42:10;10.70;99.90
26037;DHT22;13810;48.376;10.944;2023-08-08T00:42:41;10.70;99.90
26037;DHT22;13810;48.376;10.944;2023-08-08T00:43:11;10.70;99.90
26037;DHT22;13810;48.376;10.944;2023-08-08T00:43:42;10.70;99.90
26037;DHT22;13810;48.376;10.944;2023-08-08T00:44:13;10.60;99.90
26037;DHT22;13810;48.376;10.944;2023-08-08T00:44:44;10.70;99.90
26037;DHT22;13810;48.376;10.944;2023-08-08T00:45:15;10.60;99.90
26037;DHT22;13810;48.376;10.944;2023-08-08T00:45:45;10.70;99.90
26037;DHT22;13810;48.376;10.944;2023-08-08T00:46:18;10.60;99.90
26037;DHT22;13810;48.376;10.944;2023-08-08T00:46:51;10.70;99.90
26037;DHT22;13810;48.376;10.944;2023-08-08T00:47:21;10.70;99.90
26037;DHT22;13810;48.376;10.944;2023-08-08T00:47:53;10.60;99.90
26037;DHT22;13810;48.376;10.944;2023-08-08T00:48:24;10.70;99.90
26037;DHT22;13810;48.376;10.944;2023-08-08T00:48:55;10.70;99.90
26037;DHT22;13810;48.376;10.944;2023-08-08T00:49:25;10.60;99.90
26037;DHT22;13810;48.376;10.944;2023-08-08T00:49:56;10.60;99.90
26037;DHT22;13810;48.376;10.944;2023-08-08T00:50:27;10.70;99.90
26037;DHT22;13810;48.376;10.944;2023-08-08T00:50:58;10.60;99.90
26037;DHT22;13810;48.376;10.944;2023-08-08T00:51:29;10.60;99.90
26037;DHT22;13810;48.376;10.944;2023-08-08T00:52:00;10.70;99.90
26037;DHT22;13810;48.376;10.944;2023-08-08T00:52:31;10.60;99.90
26037;DHT22;13810;48.376;10.944;2023-08-08T00:53:05;10.60;99.90
26037;DHT22;13810;48.376;10.944;2023-08-08T00:53:36;10.70;99.90
26037;DHT22;13810;48.376;10.944;2023-08-08T00:54:07;10.60;99.90
26037;DHT22;13810;48.376;10.944;2023-08-08T00:54:40;10.60;99.90
26037;DHT22;13810;48.376;10.944;2023-08-08T00:55:11;10.60;99.90
26037;DHT22;13810;48.376;10.944;2023-08-08T00:55:42;10.60;99.90
26037;DHT22;13810;48.376;10.944;2023-08-08T00:56:13;10.60;99.90
26037;DHT22;13810;48.376;10.944;2023-08-08T00:56:44;10.60;99.90
26037;DHT22;13810;48.376;10.944;2023-08-08T00:57:15;10.60;99.90
26037;DHT22;13810;48.376;10.944;2023-08-08T00:57:46;10.60;99.90
26037;DHT22;13810;48.376;10.944;2023-08-08T00:58:17;10.60;99.90
26037;DHT22;13810;48.376;10.944;2023-08-08T00:58:48;10.60;99.90
26037;DHT22;13810;48.376;10.944;2023-08-08T00:59:20;10.60;99.90
26037;DHT22;13810;48.376;10.944;2023-08-08T00:59:51;10.60;99.90
26037;DHT22;13810;48.376;10.944;2023-08-08T01:00:22;10.60;99.90
26037;DHT22;13810;48.376;10.944;2023-08-08T01:00:54;10.60;99.90
26037;DHT22;13810;48.376;10.944;2023-08-08T01:01:27;10.60;99.90
26037;DHT22;13810;48.376;10.944;2023-08-08T01:01:58;10.60;99.90
26037;DHT22;13810;48.376;10.944;2023-08-08T01:02:29;10.60;99.90
26037;DHT22;13810;48.376;10.944;2023-08-08T01:02:59;10.60;99.90
26037;DHT22;13810;48.376;10.944;2023-08-08T01:03:30;10.60;99.90
26037;DHT22;13810;48.376;10.944;2023-08-08T01:04:01;10.60;99.90
26037;DHT22;13810;48.376;10.944;2023-08-08T01:04:31;10.60;99.90
26037;DHT22;13810;48.376;10.944;2023-08-08T01:05:03;10.60;99.90
26037;DHT22;13810;48.376;10.944;2023-08-08T01:05:40;10.60;99.90
26037;DHT22;13810;48.376;10.944;2023-08-08T01:06:42;10.50;99.90
26037;DHT22;13810;48.376;10.944;2023-08-08T01:07:22;10.50;99.90
26037;DHT22;13810;48.376;10.944;2023-08-08T01:08:04;10.50;99.90
26037;DHT22;13810;48.376;10.944;2023-08-08T01:08:44;10.50;99.90
26037;DHT22;13810;48.376;10.944;2023-08-08T01:09:24;10.50;99.90
26037;DHT22;13810;48.376;10.944;2023-08-08T01:10:05;10.50;99.90
26037;DHT22;13810;48.376;10.944;2023-08-08T01:10:39;10.40;99.90
26037;DHT22;13810;48.376;10.944;2023-08-08T01:11:11;10.40;99.90
26037;DHT22;13810;48.376;10.944;2023-08-08T01:11:44;10.40;99.90
26037;DHT22;13810;48.376;10.944;2023-08-08T01:12:19;10.40;99.90
26037;DHT22;13810;48.376;10.944;2023-08-08T01:12:55;10.40;99.90
26037;DHT22;13810;48.376;10.944;2023-08-08T01:13:28;10.30;99.90
26037;DHT22;13810;48.376;10.944;2023-08-08T01:14:01;10.30;99.90
26037;DHT22;13810;48.376;10.944;2023-08-08T01:14:32;10.30;99.90
26037;DHT22;13810;48.376;10.944;2023-08-08T01:15:06;10.30;99.90
26037;DHT22;13810;48.376;10.944;2023-08-08T01:15:38;10.30;99.90
26037;DHT22;13810;48.376;10.944;2023-08-08T01:16:10;10.30;99.90
26037;DHT22;13810;48.376;10.944;2023-08-08T01:16:42;10.20;99.90
26037;DHT22;13810;48.376;10.944;2023-08-08T01:17:14;10.20;99.90
26037;DHT22;13810;48.376;10.944;2023-08-08T01:17:46;10.20;99.90
26037;DHT22;13810;48.376;10.944;2023-08-08T01:18:18;10.20;99.90
26037;DHT22;13810;48.376;10.944;2023-08-08T01:18:49;10.20;99.90
26037;DHT22;13810;48.376;10.944;2023-08-08T01:19:25;10.20;99.90
26037;DHT22;13810;48.376;10.944;2023-08-08T01:19:57;10.20;99.90
26037;DHT22;13810;48.376;10.944;2023-08-08T01:20:28;10.10;99.90
26037;DHT22;13810;48.376;10.944;2023-08-08T01:20:59;10.10;99.90
26037;DHT22;13810;48.376;10.944;2023-08-08T01:21:35;10.10;99.90
26037;DHT22;13810;48.376;10.944;2023-08-08T01:22:20;10.10;99.90
26037;DHT22;13810;48.376;10.944;2023-08-08T01:23:34;10.10;99.90
26037;DHT22;13810;48.376;10.944;2023-08-08T01:24:17;10.10;99.90
26037;DHT22;13810;48.376;10.944;2023-08-08T01:24:48;10.10;99.90
26037;DHT22;13810;48.376;10.944;2023-08-08T01:25:20;10.10;99.90
26037;DHT22;13810;48.376;10.944;2023-08-08T01:25:51;10.00;99.90
26037;DHT22;13810;48.376;10.944;2023-08-08T01:26:22;10.00;99.90
26037;DHT22;13810;48.376;10.944;2023-08-08T01:26:53;10.00;99.90
26037;DHT22;13810;48.376;10.944;2023-08-08T01:27:24;10.00;99.90
26037;DHT22;13810;48.376;10.944;2023-08-08T01:27:55;10.00;99.90
26037;DHT22;13810;48.376;10.944;2023-08-08T01:28:26;10.00;99.90
26037;DHT22;13810;48.376;10.944;2023-08-08T01:28:56;9.90;99.90
26037;DHT22;13810;48.376;10.944;2023-08-08T01:29:27;10.00;99.90
26037;DHT22;13810;48.376;10.944;2023-08-08T01:29:58;10.00;99.90
26037;DHT22;13810;48.376;10.944;2023-08-08T01:30:28;9.90;99.90
26037;DHT22;13810;48.376;10.944;2023-08-08T01:30:59;9.90;99.90
26037;DHT22;13810;48.376;10.944;2023-08-08T01:31:29;9.90;99.90
26037;DHT22;13810;48.376;10.944;2023-08-08T01:32:00;9.90;99.90
26037;DHT22;13810;48.376;10.944;2023-08-08T01:32:31;9.90;99.90
26037;DHT22;13810;48.376;10.944;2023-08-08T01:33:02;9.90;99.90
26037;DHT22;13810;48.376;10.944;2023-08-08T01:33:33;9.90;99.90
26037;DHT22;13810;48.376;10.944;2023-08-08T01:34:03;9.90;99.90
26037;DHT22;13810;48.376;10.944;2023-08-08T01:34:35;9.90;99.90
26037;DHT22;13810;48.376;10.944;2023-08-08T01:35:06;9.80;99.90
26037;DHT22;13810;48.376;10.944;2023-08-08T01:35:38;9.80;99.90
26037;DHT22;13810;48.376;10.944;2023-08-08T01:36:29;9.90;99.90
26037;DHT22;13810;48.376;10.944;2023-08-08T01:37:28;9.80;99.90
26037;DHT22;13810;48.376;10.944;2023-08-08T01:38:27;9.80;99.90
26037;DHT22;13810;48.376;10.944;2023-08-08T01:39:00;9.80;99.90
26037;DHT22;13810;48.376;10.944;2023-08-08T01:39:35;9.80;99.90
26037;DHT22;13810;48.376;10.944;2023-08-08T01:40:08;9.80;99.90
26037;DHT22;13810;48.376;10.944;2023-08-08T01:40:43;9.80;99.90
26037;DHT22;13810;48.376;10.944;2023-08-08T01:41:15;9.70;99.90
26037;DHT22;13810;48.376;10.944;2023-08-08T01:41:47;9.70;99.90
26037;DHT22;13810;48.376;10.944;2023-08-08T01:42:19;9.70;99.90
26037;DHT22;13810;48.376;10.944;2023-08-08T01:42:52;9.70;99.90
26037;DHT22;13810;48.376;10.944;2023-08-08T01:43:24;9.70;99.90
26037;DHT22;13810;48.376;10.944;2023-08-08T01:43:54;9.70;99.90
26037;DHT22;13810;48.376;10.944;2023-08-08T01:44:26;9.60;99.90
26037;DHT22;13810;48.376;10.944;2023-08-08T01:44:57;9.60;99.90
26037;DHT22;13810;48.376;10.944;2023-08-08T01:45:28;9.60;99.90
26037;DHT22;13810;48.376;10.944;2023-08-08T01:46:00;9.60;99.90
26037;DHT22;13810;48.376;10.944;2023-08-08T01:46:31;9.70;99.90
26037;DHT22;13810;48.376;10.944;2023-08-08T01:47:02;9.60;99.90
26037;DHT22;13810;48.376;10.944;2023-08-08T01:47:33;9.60;99.90
26037;DHT22;13810;48.376;10.944;2023-08-08T01:48:10;9.60;99.90
26037;DHT22;13810;48.376;10.944;2023-08-08T01:48:45;9.60;99.90
26037;DHT22;13810;48.376;10.944;2023-08-08T01:49:16;9.60;99.90
26037;DHT22;13810;48.376;10.944;2023-08-08T01:49:46;9.60;99.90
26037;DHT22;13810;48.376;10.944;2023-08-08T01:50:17;9.60;99.90
26037;DHT22;13810;48.376;10.944;2023-08-08T01:50:48;9.60;99.90
26037;DHT22;13810;48.376;10.944;2023-08-08T01:51:18;9.60;99.90
26037;DHT22;13810;48.376;10.944;2023-08-08T01:51:49;9.60;99.90
26037;DHT22;13810;48.376;10.944;2023-08-08T01:52:21;9.60;99.90
26037;DHT22;13810;48.376;10.944;2023-08-08T01:52:53;9.60;99.90
26037;DHT22;13810;48.376;10.944;2023-08-08T01:53:23;9.60;99.90
26037;DHT22;13810;48.376;10.944;2023-08-08T01:53:54;9.60;99.90
26037;DHT22;13810;48.376;10.944;2023-08-08T01:54:25;9.60;99.90
26037;DHT22;13810;48.376;10.944;2023-08-08T01:54:56;9.60;99.90
26037;DHT22;13810;48.376;10.944;2023-08-08T01:55:26;9.60;99.90
26037;DHT22;13810;48.376;10.944;2023-08-08T01:55:57;9.60;99.90
26037;DHT22;13810;48.376;10.944;2023-08-08T01:56:27;9.60;99.90
26037;DHT22;13810;48.376;10.944;2023-08-08T01:56:58;9.60;99.90
26037;DHT22;13810;48.376;10.944;2023-08-08T01:57:29;9.60;99.90
26037;DHT22;13810;48.376;10.944;2023-08-08T01:57:59;9.60;99.90
26037;DHT22;13810;48.376;10.944;2023-08-08T01:58:30;9.60;99.90
26037;DHT22;13810;48.376;10.944;2023-08-08T01:59:01;9.60;99.90
26037;DHT22;13810;48.376;10.944;2023-08-08T01:59:31;9.70;99.90
26037;DHT22;13810;48.376;10.944;2023-08-08T02:00:02;9.70;99.90
26037;DHT22;13810;48.376;10.944;2023-08-08T02:00:34;9.70;99.90
26037;DHT22;13810;48.376;10.944;2023-08-08T02:01:07;9.70;99.90
26037;DHT22;13810;48.376;10.944;2023-08-08T02:01:37;9.70;99.90
26037;DHT22;13810;48.376;10.944;2023-08-08T02:02:08;9.70;99.90
26037;DHT22;13810;48.376;10.944;2023-08-08T02:02:38;9.70;99.90
26037;DHT22;13810;48.376;10.944;2023-08-08T02:03:09;9.80;99.90
26037;DHT22;13810;48.376;10.944;2023-08-08T02:03:40;9.70;99.90
26037;DHT22;13810;48.376;10.944;2023-08-08T02:04:10;9.80;99.90
26037;DHT22;13810;48.376;10.944;2023-08-08T02:04:41;9.80;99.90
26037;DHT22;13810;48.376;10.944;2023-08-08T02:05:11;9.80;99.90
26037;DHT22;13810;48.376;10.944;2023-08-08T02:05:42;9.80;99.90
26037;DHT22;13810;48.376;10.944;2023-08-08T02:06:13;9.80;99.90
26037;DHT22;13810;48.376;10.944;2023-08-08T02:06:43;9.90;99.90
26037;DHT22;13810;48.376;10.944;2023-08-08T02:07:14;9.90;99.90
26037;DHT22;13810;48.376;10.944;2023-08-08T02:07:44;9.90;99.90
26037;DHT22;13810;48.376;10.944;2023-08-08T02:08:15;9.90;99.90
26037;DHT22;13810;48.376;10.944;2023-08-08T02:08:46;9.90;99.90
26037;DHT22;13810;48.376;10.944;2023-08-08T02:09:16;9.90;99.90
26037;DHT22;13810;48.376;10.944;2023-08-08T02:09:47;10.00;99.90
26037;DHT22;13810;48.376;10.944;2023-08-08T02:10:18;10.00;99.90
26037;DHT22;13810;48.376;10.944;2023-08-08T02:10:48;10.00;99.90
26037;DHT22;13810;48.376;10.944;2023-08-08T02:11:19;10.00;99.90
26037;DHT22;13810;48.376;10.944;2023-08-08T02:11:52;10.00;99.90
26037;DHT22;13810;48.376;10.944;2023-08-08T02:12:22;10.10;99.90
26037;DHT22;13810;48.376;10.944;2023-08-08T02:12:53;10.10;99.90
26037;DHT22;13810;48.376;10.944;2023-08-08T02:13:23;10.10;99.90
26037;DHT22;13810;48.376;10.944;2023-08-08T02:13:54;10.10;99.90
26037;DHT22;13810;48.376;10.944;2023-08-08T02:14:25;10.10;99.90
26037;DHT22;13810;48.376;10.944;2023-08-08T02:14:56;10.10;99.90
26037;DHT22;13810;48.376;10.944;2023-08-08T02:15:27;10.10;99.90
26037;DHT22;13810;48.376;10.944;2023-08-08T02:15:58;10.10;99.90
26037;DHT22;13810;48.376;10.944;2023-08-08T02:16:28;10.20;99.90
26037;DHT22;13810;48.376;10.944;2023-08-08T02:16:59;10.20;99.90
26037;DHT22;13810;48.376;10.944;2023-08-08T02:17:30;10.20;99.90
26037;DHT22;13810;48.376;10.944;2023-08-08T02:18:00;10.20;99.90
26037;DHT22;13810;48.376;10.944;2023-08-08T02:18:31;10.20;99.90
26037;DHT22;13810;48.376;10.944;2023-08-08T02:19:02;10.30;99.90
26037;DHT22;13810;48.376;10.944;2023-08-08T02:19:32;10.30;99.90
26037;DHT22;13810;48.376;10.944;2023-08-08T02:20:04;10.30;99.90
26037;DHT22;13810;48.376;10.944;2023-08-08T02:20:35;10.30;99.90
26037;DHT22;13810;48.376;10.944;2023-08-08T02:21:06;10.30;99.90
26037;DHT22;13810;48.376;10.944;2023-08-08T02:21:36;10.30;99.90
26037;DHT22;13810;48.376;10.944;2023-08-08T02:22:07;10.30;99.90
26037;DHT22;13810;48.376;10.944;2023-08-08T02:22:38;10.30;99.90
26037;DHT22;13810;48.376;10.944;2023-08-08T02:23:08;10.30;99.90
26037;DHT22;13810;48.376;10.944;2023-08-08T02:23:39;10.30;99.90
26037;DHT22;13810;48.376;10.944;2023-08-08T02:24:09;10.30;99.90
26037;DHT22;13810;48.376;10.944;2023-08-08T02:24:40;10.30;99.90
26037;DHT22;13810;48.376;10.944;2023-08-08T02:25:11;10.30;99.90
26037;DHT22;13810;48.376;10.944;2023-08-08T02:25:41;10.40;99.90
26037;DHT22;13810;48.376;10.944;2023-08-08T02:26:12;10.40;99.90
26037;DHT22;13810;48.376;10.944;2023-08-08T02:26:42;10.40;99.90
26037;DHT22;13810;48.376;10.944;2023-08-08T02:27:13;10.40;99.90
26037;DHT22;13810;48.376;10.944;2023-08-08T02:27:44;10.40;99.90
26037;DHT22;13810;48.376;10.944;2023-08-08T02:28:15;10.40;99.90
26037;DHT22;13810;48.376;10.944;2023-08-08T02:28:45;10.40;99.90
26037;DHT22;13810;48.376;10.944;2023-08-08T02:29:16;10.40;99.90
26037;DHT22;13810;48.376;10.944;2023-08-08T02:29:47;10.40;99.90
26037;DHT22;13810;48.376;10.944;2023-08-08T02:30:17;10.40;99.90
26037;DHT22;13810;48.376;10.944;2023-08-08T02:30:48;10.40;99.90
26037;DHT22;13810;48.376;10.944;2023-08-08T02:31:18;10.40;99.90
26037;DHT22;13810;48.376;10.944;2023-08-08T02:31:51;10.40;99.90
26037;DHT22;13810;48.376;10.944;2023-08-08T02:32:21;10.50;99.90
26037;DHT22;13810;48.376;10.944;2023-08-08T02:32:52;10.50;99.90
26037;DHT22;13810;48.376;10.944;2023-08-08T02:33:23;10.50;99.90
26037;DHT22;13810;48.376;10.944;2023-08-08T02:33:53;10.50;99.90
26037;DHT22;13810;48.376;10.944;2023-08-08T02:34:25;10.50;99.90
26037;DHT22;13810;48.376;10.944;2023-08-08T02:34:56;10.50;99.90
26037;DHT22;13810;48.376;10.944;2023-08-08T02:35:27;10.50;99.90
26037;DHT22;13810;48.376;10.944;2023-08-08T02:35:57;10.50;99.90
26037;DHT22;13810;48.376;10.944;2023-08-08T02:36:28;10.50;99.90
26037;DHT22;13810;48.376;10.944;2023-08-08T02:36:59;10.50;99.90
26037;DHT22;13810;48.376;10.944;2023-08-08T02:37:29;10.50;99.90
26037;DHT22;13810;48.376;10.944;2023-08-08T02:38:00;10.50;99.90
26037;DHT22;13810;48.376;10.944;2023-08-08T02:38:30;10.50;99.90
26037;DHT22;13810;48.376;10.944;2023-08-08T02:39:01;10.50;99.90
26037;DHT22;13810;48.376;10.944;2023-08-08T02:39:32;10.50;99.90
26037;DHT22;13810;48.376;10.944;2023-08-08T02:40:03;10.50;99.90
26037;DHT22;13810;48.376;10.944;2023-08-08T02:40:34;10.50;99.90
26037;DHT22;13810;48.376;10.944;2023-08-08T02:41:04;10.50;99.90
26037;DHT22;13810;48.376;10.944;2023-08-08T02:41:35;10.50;99.90
26037;DHT22;13810;48.376;10.944;2023-08-08T02:42:06;10.50;99.90
26037;DHT22;13810;48.376;10.944;2023-08-08T02:42:36;10.40;99.90
26037;DHT22;13810;48.376;10.944;2023-08-08T02:43:07;10.50;99.90
26037;DHT22;13810;48.376;10.944;2023-08-08T02:43:39;10.40;99.90
26037;DHT22;13810;48.376;10.944;2023-08-08T02:44:10;10.40;99.90
26037;DHT22;13810;48.376;10.944;2023-08-08T02:44:41;10.40;99.90
26037;DHT22;13810;48.376;10.944;2023-08-08T02:45:11;10.40;99.90
26037;DHT22;13810;48.376;10.944;2023-08-08T02:45:42;10.40;99.90
26037;DHT22;13810;48.376;10.944;2023-08-08T02:46:13;10.40;99.90
26037;DHT22;13810;48.376;10.944;2023-08-08T02:46:43;10.40;99.90
26037;DHT22;13810;48.376;10.944;2023-08-08T02:47:14;10.40;99.90
26037;DHT22;13810;48.376;10.944;2023-08-08T02:47:44;10.40;99.90
26037;DHT22;13810;48.376;10.944;2023-08-08T02:48:15;10.40;99.90
26037;DHT22;13810;48.376;10.944;2023-08-08T02:48:46;10.40;99.90
26037;DHT22;13810;48.376;10.944;2023-08-08T02:49:16;10.40;99.90
26037;DHT22;13810;48.376;10.944;2023-08-08T02:49:47;10.40;99.90
26037;DHT22;13810;48.376;10.944;2023-08-08T02:50:17;10.40;99.90
26037;DHT22;13810;48.376;10.944;2023-08-08T02:50:48;10.40;99.90
26037;DHT22;13810;48.376;10.944;2023-08-08T02:51:19;10.40;99.90
26037;DHT22;13810;48.376;10.944;2023-08-08T02:51:49;10.40;99.90
26037;DHT22;13810;48.376;10.944;2023-08-08T02:52:20;10.40;99.90
26037;DHT22;13810;48.376;10.944;2023-08-08T02:52:50;10.30;99.90
26037;DHT22;13810;48.376;10.944;2023-08-08T02:53:22;10.30;99.90
26037;DHT22;13810;48.376;10.944;2023-08-08T02:53:52;10.40;99.90
26037;DHT22;13810;48.376;10.944;2023-08-08T02:54:23;10.30;99.90
26037;DHT22;13810;48.376;10.944;2023-08-08T02:54:53;10.30;99.90
26037;DHT22;13810;48.376;10.944;2023-08-08T02:55:24;10.40;99.90
26037;DHT22;13810;48.376;10.944;2023-08-08T02:55:55;10.30;99.90
26037;DHT22;13810;48.376;10.944;2023-08-08T02:56:25;10.40;99.90
26037;DHT22;13810;48.376;10.944;2023-08-08T02:56:56;10.40;99.90
26037;DHT22;13810;48.376;10.944;2023-08-08T02:57:26;10.30;99.90
26037;DHT22;13810;48.376;10.944;2023-08-08T02:57:57;10.40;99.90
26037;DHT22;13810;48.376;10.944;2023-08-08T02:58:28;10.40;99.90
26037;DHT22;13810;48.376;10.944;2023-08-08T02:58:58;10.40;99.90
26037;DHT22;13810;48.376;10.944;2023-08-08T02:59:29;10.40;99.90
26037;DHT22;13810;48.376;10.944;2023-08-08T03:00:00;10.40;99.90
26037;DHT22;13810;48.376;10.944;2023-08-08T03:00:30;10.40;99.90
26037;DHT22;13810;48.376;10.944;2023-08-08T03:01:01;10.40;99.90
26037;DHT22;13810;48.376;10.944;2023-08-08T03:01:32;10.40;99.90
26037;DHT22;13810;48.376;10.944;2023-08-08T03:02:03;10.40;99.90
26037;DHT22;13810;48.376;10.944;2023-08-08T03:02:34;10.40;99.90
26037;DHT22;13810;48.376;10.944;2023-08-08T03:03:04;10.40;99.90
26037;DHT22;13810;48.376;10.944;2023-08-08T03:03:35;10.40;99.90
26037;DHT22;13810;48.376;10.944;2023-08-08T03:04:06;10.40;99.90
26037;DHT22;13810;48.376;10.944;2023-08-08T03:04:36;10.40;99.90
26037;DHT22;13810;48.376;10.944;2023-08-08T03:05:07;10.40;99.90
26037;DHT22;13810;48.376;10.944;2023-08-08T03:05:38;10.40;99.90
26037;DHT22;13810;48.376;10.944;2023-08-08T03:06:09;10.40;99.90
26037;DHT22;13810;48.376;10.944;2023-08-08T03:06:39;10.40;99.90
26037;DHT22;13810;48.376;10.944;2023-08-08T03:07:10;10.40;99.90
26037;DHT22;13810;48.376;10.944;2023-08-08T03:07:40;10.40;99.90
26037;DHT22;13810;48.376;10.944;2023-08-08T03:08:11;10.40;99.90
26037;DHT22;13810;48.376;10.944;2023-08-08T03:08:42;10.40;99.90
26037;DHT22;13810;48.376;10.944;2023-08-08T03:09:12;10.40;99.90
26037;DHT22;13810;48.376;10.944;2023-08-08T03:09:43;10.40;99.90
26037;DHT22;13810;48.376;10.944;2023-08-08T03:10:14;10.40;99.90
26037;DHT22;13810;48.376;10.944;2023-08-08T03:10:44;10.40;99.90
26037;DHT22;13810;48.376;10.944;2023-08-08T03:11:15;10.40;99.90
26037;DHT22;13810;48.376;10.944;2023-08-08T03:11:45;10.50;99.90
26037;DHT22;13810;48.376;10.944;2023-08-08T03:12:16;10.50;99.90
26037;DHT22;13810;48.376;10.944;2023-08-08T03:12:47;10.40;99.90
26037;DHT22;13810;48.376;10.944;2023-08-08T03:13:17;10.50;99.90
26037;DHT22;13810;48.376;10.944;2023-08-08T03:13:48;10.50;99.90
26037;DHT22;13810;48.376;10.944;2023-08-08T03:14:19;10.50;99.90
26037;DHT22;13810;48.376;10.944;2023-08-08T03:14:49;10.50;99.90
26037;DHT22;13810;48.376;10.944;2023-08-08T03:15:20;10.50;99.90
26037;DHT22;13810;48.376;10.944;2023-08-08T03:15:51;10.50;99.90
26037;DHT22;13810;48.376;10.944;2023-08-08T03:16:21;10.50;99.90
26037;DHT22;13810;48.376;10.944;2023-08-08T03:16:52;10.50;99.90
26037;DHT22;13810;48.376;10.944;2023-08-08T03:17:23;10.50;99.90